sensor_id;sensor_type;location;lat;lon;timestamp;P1;durP1;ratioP1;P2;durP2;ratioP2
15486;SDS011;7845;53.698;10.078;2022-12-29T00:01:34;5.33;;;2.80;;
15486;SDS011;7845;53.698;10.078;2022-12-29T00:04:00;5.17;;;3.40;;
15486;SDS011;7845;53.698;10.078;2022-12-29T00:06:27;7.50;;;3.80;;
15486;SDS011;7845;53.698;10.078;2022-12-29T00:08:53;6.53;;;2.90;;
15486;SDS011;7845;53.698;10.078;2022-12-29T00:11:19;7.60;;;3.13;;
15486;SDS011;7845;53.698;10.078;2022-12-29T00:13:46;5.50;;;3.03;;
15486;SDS011;7845;53.698;10.078;2022-12-29T00:16:30;5.60;;;3.37;;
15486;SDS011;7845;53.698;10.078;2022-12-29T00:18:57;5.60;;;4.07;;
15486;SDS011;7845;53.698;10.078;2022-12-29T00:21:23;6.90;;;3.77;;
15486;SDS011;7845;53.698;10.078;2022-12-29T00:24:12;5.13;;;3.40;;
15486;SDS011;7845;53.698;10.078;2022-12-29T00:29:47;4.90;;;2.93;;
15486;SDS011;7845;53.698;10.078;2022-12-29T00:32:34;4.87;;;3.43;;
15486;SDS011;7845;53.698;10.078;2022-12-29T00:35:28;6.50;;;4.20;;
15486;SDS011;7845;53.698;10.078;2022-12-29T00:38:02;6.30;;;3.80;;
15486;SDS011;7845;53.698;10.078;2022-12-29T00:40:48;5.73;;;3.80;;
15486;SDS011;7845;53.698;10.078;2022-12-29T00:43:34;5.30;;;3.40;;
15486;SDS011;7845;53.698;10.078;2022-12-29T00:46:18;5.33;;;3.77;;
15486;SDS011;7845;53.698;10.078;2022-12-29T00:48:44;6.37;;;4.60;;
15486;SDS011;7845;53.698;10.078;2022-12-29T00:51:29;5.93;;;4.30;;
15486;SDS011;7845;53.698;10.078;2022-12-29T00:53:54;6.13;;;4.13;;
15486;SDS011;7845;53.698;10.078;2022-12-29T00:56:19;5.70;;;4.10;;
15486;SDS011;7845;53.698;10.078;2022-12-29T00:58:45;5.93;;;4.00;;
15486;SDS011;7845;53.698;10.078;2022-12-29T01:01:10;6.20;;;4.70;;
15486;SDS011;7845;53.698;10.078;2022-12-29T01:03:36;5.00;;;3.70;;
15486;SDS011;7845;53.698;10.078;2022-12-29T01:06:04;7.07;;;4.67;;
15486;SDS011;7845;53.698;10.078;2022-12-29T01:08:34;6.33;;;4.27;;
15486;SDS011;7845;53.698;10.078;2022-12-29T01:13:32;8.27;;;4.33;;
15486;SDS011;7845;53.698;10.078;2022-12-29T01:15:58;5.80;;;4.50;;
15486;SDS011;7845;53.698;10.078;2022-12-29T01:18:24;6.13;;;4.57;;
15486;SDS011;7845;53.698;10.078;2022-12-29T01:23:44;6.23;;;4.03;;
15486;SDS011;7845;53.698;10.078;2022-12-29T01:26:13;5.60;;;3.63;;
15486;SDS011;7845;53.698;10.078;2022-12-29T01:28:40;6.20;;;4.27;;
15486;SDS011;7845;53.698;10.078;2022-12-29T01:31:10;5.40;;;3.70;;
15486;SDS011;7845;53.698;10.078;2022-12-29T01:33:37;6.17;;;4.47;;
15486;SDS011;7845;53.698;10.078;2022-12-29T01:36:03;7.27;;;3.60;;
15486;SDS011;7845;53.698;10.078;2022-12-29T01:38:30;5.00;;;3.57;;
15486;SDS011;7845;53.698;10.078;2022-12-29T01:40:56;6.07;;;3.70;;
15486;SDS011;7845;53.698;10.078;2022-12-29T01:43:21;5.70;;;3.80;;
15486;SDS011;7845;53.698;10.078;2022-12-29T01:46:21;5.83;;;4.20;;
15486;SDS011;7845;53.698;10.078;2022-12-29T01:48:51;5.77;;;4.10;;
15486;SDS011;7845;53.698;10.078;2022-12-29T01:51:33;5.80;;;4.20;;
15486;SDS011;7845;53.698;10.078;2022-12-29T01:54:03;5.57;;;3.73;;
15486;SDS011;7845;53.698;10.078;2022-12-29T01:56:34;7.60;;;5.80;;
15486;SDS011;7845;53.698;10.078;2022-12-29T01:59:06;6.87;;;4.50;;
15486;SDS011;7845;53.698;10.078;2022-12-29T02:01:37;6.20;;;4.10;;
15486;SDS011;7845;53.698;10.078;2022-12-29T02:04:02;6.07;;;4.33;;
15486;SDS011;7845;53.698;10.078;2022-12-29T02:06:33;6.77;;;4.70;;
15486;SDS011;7845;53.698;10.078;2022-12-29T02:09:05;6.50;;;4.40;;
15486;SDS011;7845;53.698;10.078;2022-12-29T02:11:30;6.50;;;4.83;;
15486;SDS011;7845;53.698;10.078;2022-12-29T02:13:56;7.00;;;5.17;;
15486;SDS011;7845;53.698;10.078;2022-12-29T02:16:44;6.93;;;4.87;;
15486;SDS011;7845;53.698;10.078;2022-12-29T02:22:06;6.07;;;4.80;;
15486;SDS011;7845;53.698;10.078;2022-12-29T02:24:42;7.20;;;4.60;;
15486;SDS011;7845;53.698;10.078;2022-12-29T02:27:44;6.27;;;4.50;;
15486;SDS011;7845;53.698;10.078;2022-12-29T02:30:26;7.70;;;4.70;;
15486;SDS011;7845;53.698;10.078;2022-12-29T02:33:05;7.13;;;4.97;;
15486;SDS011;7845;53.698;10.078;2022-12-29T02:44:02;5.80;;;4.07;;
15486;SDS011;7845;53.698;10.078;2022-12-29T02:46:59;6.10;;;4.27;;
15486;SDS011;7845;53.698;10.078;2022-12-29T02:49:51;7.07;;;3.87;;
15486;SDS011;7845;53.698;10.078;2022-12-29T02:52:36;6.03;;;4.50;;
15486;SDS011;7845;53.698;10.078;2022-12-29T02:55:06;6.27;;;4.80;;
15486;SDS011;7845;53.698;10.078;2022-12-29T02:57:35;6.17;;;3.87;;
15486;SDS011;7845;53.698;10.078;2022-12-29T03:00:05;6.37;;;4.10;;
15486;SDS011;7845;53.698;10.078;2022-12-29T03:02:38;6.20;;;4.30;;
15486;SDS011;7845;53.698;10.078;2022-12-29T03:08:39;5.00;;;3.33;;
15486;SDS011;7845;53.698;10.078;2022-12-29T03:11:13;5.60;;;3.60;;
15486;SDS011;7845;53.698;10.078;2022-12-29T03:14:17;5.57;;;3.70;;
15486;SDS011;7845;53.698;10.078;2022-12-29T03:17:18;5.90;;;3.50;;
15486;SDS011;7845;53.698;10.078;2022-12-29T03:19:52;5.50;;;3.70;;
15486;SDS011;7845;53.698;10.078;2022-12-29T03:22:25;5.87;;;3.07;;
15486;SDS011;7845;53.698;10.078;2022-12-29T03:27:50;4.90;;;3.20;;
15486;SDS011;7845;53.698;10.078;2022-12-29T03:30:21;6.20;;;3.50;;
15486;SDS011;7845;53.698;10.078;2022-12-29T03:32:49;5.63;;;3.53;;
15486;SDS011;7845;53.698;10.078;2022-12-29T03:35:19;5.50;;;3.30;;
15486;SDS011;7845;53.698;10.078;2022-12-29T03:37:59;5.53;;;3.43;;
15486;SDS011;7845;53.698;10.078;2022-12-29T03:40:31;5.60;;;3.70;;
15486;SDS011;7845;53.698;10.078;2022-12-29T03:42:59;5.40;;;3.53;;
15486;SDS011;7845;53.698;10.078;2022-12-29T03:45:27;6.13;;;3.30;;
15486;SDS011;7845;53.698;10.078;2022-12-29T03:47:52;5.00;;;3.10;;
15486;SDS011;7845;53.698;10.078;2022-12-29T03:50:19;5.80;;;3.17;;
15486;SDS011;7845;53.698;10.078;2022-12-29T03:52:44;5.20;;;3.50;;
15486;SDS011;7845;53.698;10.078;2022-12-29T03:55:09;5.97;;;3.30;;
15486;SDS011;7845;53.698;10.078;2022-12-29T03:57:35;4.40;;;2.80;;
15486;SDS011;7845;53.698;10.078;2022-12-29T04:00:00;5.57;;;3.30;;
15486;SDS011;7845;53.698;10.078;2022-12-29T04:02:26;5.07;;;3.17;;
15486;SDS011;7845;53.698;10.078;2022-12-29T04:05:00;6.20;;;3.13;;
15486;SDS011;7845;53.698;10.078;2022-12-29T04:07:25;5.37;;;3.20;;
15486;SDS011;7845;53.698;10.078;2022-12-29T04:09:51;5.47;;;3.00;;
15486;SDS011;7845;53.698;10.078;2022-12-29T04:12:16;5.10;;;3.30;;
15486;SDS011;7845;53.698;10.078;2022-12-29T04:14:41;4.40;;;2.73;;
15486;SDS011;7845;53.698;10.078;2022-12-29T04:17:08;4.70;;;3.03;;
15486;SDS011;7845;53.698;10.078;2022-12-29T04:19:34;5.80;;;2.63;;
15486;SDS011;7845;53.698;10.078;2022-12-29T04:21:59;5.70;;;3.10;;
15486;SDS011;7845;53.698;10.078;2022-12-29T04:24:26;5.27;;;3.57;;
15486;SDS011;7845;53.698;10.078;2022-12-29T04:26:51;4.17;;;2.60;;
15486;SDS011;7845;53.698;10.078;2022-12-29T04:29:17;5.97;;;2.93;;
15486;SDS011;7845;53.698;10.078;2022-12-29T04:31:42;4.50;;;2.53;;
15486;SDS011;7845;53.698;10.078;2022-12-29T04:34:08;4.67;;;2.60;;
15486;SDS011;7845;53.698;10.078;2022-12-29T04:36:33;4.53;;;2.60;;
15486;SDS011;7845;53.698;10.078;2022-12-29T04:38:58;5.43;;;2.23;;
15486;SDS011;7845;53.698;10.078;2022-12-29T04:41:24;3.93;;;2.17;;
15486;SDS011;7845;53.698;10.078;2022-12-29T04:43:49;4.63;;;2.30;;
15486;SDS011;7845;53.698;10.078;2022-12-29T04:46:15;4.00;;;2.00;;
15486;SDS011;7845;53.698;10.078;2022-12-29T04:48:42;5.43;;;2.30;;
15486;SDS011;7845;53.698;10.078;2022-12-29T04:51:07;4.63;;;2.03;;
15486;SDS011;7845;53.698;10.078;2022-12-29T04:53:33;3.80;;;1.80;;
15486;SDS011;7845;53.698;10.078;2022-12-29T04:55:58;3.60;;;1.90;;
15486;SDS011;7845;53.698;10.078;2022-12-29T04:58:24;4.20;;;1.90;;
15486;SDS011;7845;53.698;10.078;2022-12-29T05:00:50;4.13;;;2.13;;
15486;SDS011;7845;53.698;10.078;2022-12-29T05:03:16;8.03;;;1.97;;
15486;SDS011;7845;53.698;10.078;2022-12-29T05:05:41;3.80;;;1.80;;
15486;SDS011;7845;53.698;10.078;2022-12-29T05:08:06;5.27;;;1.93;;
15486;SDS011;7845;53.698;10.078;2022-12-29T05:10:32;4.40;;;1.50;;
15486;SDS011;7845;53.698;10.078;2022-12-29T05:12:57;6.03;;;2.07;;
15486;SDS011;7845;53.698;10.078;2022-12-29T05:15:25;4.30;;;2.27;;
15486;SDS011;7845;53.698;10.078;2022-12-29T05:17:50;3.70;;;1.77;;
15486;SDS011;7845;53.698;10.078;2022-12-29T05:20:15;5.90;;;1.90;;
15486;SDS011;7845;53.698;10.078;2022-12-29T05:22:41;5.77;;;2.13;;
15486;SDS011;7845;53.698;10.078;2022-12-29T05:25:06;3.60;;;1.83;;
15486;SDS011;7845;53.698;10.078;2022-12-29T05:27:33;4.13;;;1.93;;
15486;SDS011;7845;53.698;10.078;2022-12-29T05:29:59;3.90;;;2.10;;
15486;SDS011;7845;53.698;10.078;2022-12-29T05:32:25;4.77;;;2.00;;
15486;SDS011;7845;53.698;10.078;2022-12-29T05:34:51;4.10;;;2.30;;
15486;SDS011;7845;53.698;10.078;2022-12-29T05:37:16;4.90;;;2.03;;
15486;SDS011;7845;53.698;10.078;2022-12-29T05:39:41;4.57;;;1.90;;
15486;SDS011;7845;53.698;10.078;2022-12-29T05:42:06;4.27;;;2.00;;
15486;SDS011;7845;53.698;10.078;2022-12-29T05:44:32;4.00;;;2.07;;
15486;SDS011;7845;53.698;10.078;2022-12-29T05:46:58;5.03;;;2.57;;
15486;SDS011;7845;53.698;10.078;2022-12-29T05:49:23;4.27;;;2.20;;
15486;SDS011;7845;53.698;10.078;2022-12-29T05:51:48;4.30;;;2.10;;
15486;SDS011;7845;53.698;10.078;2022-12-29T05:54:14;5.43;;;2.60;;
15486;SDS011;7845;53.698;10.078;2022-12-29T05:56:39;5.70;;;2.80;;
15486;SDS011;7845;53.698;10.078;2022-12-29T05:59:04;4.50;;;2.60;;
15486;SDS011;7845;53.698;10.078;2022-12-29T06:01:30;5.20;;;3.20;;
15486;SDS011;7845;53.698;10.078;2022-12-29T06:03:55;4.20;;;2.50;;
15486;SDS011;7845;53.698;10.078;2022-12-29T06:06:20;4.47;;;2.33;;
15486;SDS011;7845;53.698;10.078;2022-12-29T06:08:46;4.00;;;2.27;;
15486;SDS011;7845;53.698;10.078;2022-12-29T06:11:11;4.17;;;2.30;;
15486;SDS011;7845;53.698;10.078;2022-12-29T06:13:37;3.60;;;1.93;;
15486;SDS011;7845;53.698;10.078;2022-12-29T06:16:02;4.40;;;2.47;;
15486;SDS011;7845;53.698;10.078;2022-12-29T06:18:28;3.70;;;1.90;;
15486;SDS011;7845;53.698;10.078;2022-12-29T06:20:58;4.10;;;1.90;;
15486;SDS011;7845;53.698;10.078;2022-12-29T06:23:25;3.80;;;1.87;;
15486;SDS011;7845;53.698;10.078;2022-12-29T06:25:50;3.67;;;2.13;;
15486;SDS011;7845;53.698;10.078;2022-12-29T06:28:16;5.73;;;1.90;;
15486;SDS011;7845;53.698;10.078;2022-12-29T06:30:43;3.77;;;1.70;;
15486;SDS011;7845;53.698;10.078;2022-12-29T06:33:09;4.40;;;1.50;;
15486;SDS011;7845;53.698;10.078;2022-12-29T06:35:34;3.53;;;1.97;;
15486;SDS011;7845;53.698;10.078;2022-12-29T06:38:01;3.73;;;1.80;;
15486;SDS011;7845;53.698;10.078;2022-12-29T06:40:26;4.13;;;1.60;;
15486;SDS011;7845;53.698;10.078;2022-12-29T06:42:51;3.17;;;1.47;;
15486;SDS011;7845;53.698;10.078;2022-12-29T06:45:17;4.07;;;1.70;;
15486;SDS011;7845;53.698;10.078;2022-12-29T06:47:42;3.60;;;1.70;;
15486;SDS011;7845;53.698;10.078;2022-12-29T06:50:08;4.20;;;2.13;;
15486;SDS011;7845;53.698;10.078;2022-12-29T06:52:33;4.13;;;1.57;;
15486;SDS011;7845;53.698;10.078;2022-12-29T06:54:58;3.60;;;1.60;;
15486;SDS011;7845;53.698;10.078;2022-12-29T06:57:25;3.63;;;1.57;;
15486;SDS011;7845;53.698;10.078;2022-12-29T06:59:51;4.07;;;1.77;;
15486;SDS011;7845;53.698;10.078;2022-12-29T07:02:20;3.80;;;1.70;;
15486;SDS011;7845;53.698;10.078;2022-12-29T07:04:46;3.93;;;1.90;;
15486;SDS011;7845;53.698;10.078;2022-12-29T07:07:11;4.20;;;1.63;;
15486;SDS011;7845;53.698;10.078;2022-12-29T07:09:36;3.87;;;1.60;;
15486;SDS011;7845;53.698;10.078;2022-12-29T07:12:02;3.60;;;1.60;;
15486;SDS011;7845;53.698;10.078;2022-12-29T07:14:27;3.37;;;1.27;;
15486;SDS011;7845;53.698;10.078;2022-12-29T07:16:53;3.60;;;1.50;;
15486;SDS011;7845;53.698;10.078;2022-12-29T07:19:21;3.50;;;1.53;;
15486;SDS011;7845;53.698;10.078;2022-12-29T07:21:46;3.63;;;1.80;;
15486;SDS011;7845;53.698;10.078;2022-12-29T07:24:12;3.40;;;1.50;;
15486;SDS011;7845;53.698;10.078;2022-12-29T07:26:37;4.93;;;2.00;;
15486;SDS011;7845;53.698;10.078;2022-12-29T07:29:03;3.43;;;1.70;;
15486;SDS011;7845;53.698;10.078;2022-12-29T07:31:29;3.50;;;1.90;;
15486;SDS011;7845;53.698;10.078;2022-12-29T07:33:54;4.27;;;1.60;;
15486;SDS011;7845;53.698;10.078;2022-12-29T07:36:20;5.10;;;1.77;;
15486;SDS011;7845;53.698;10.078;2022-12-29T07:38:45;3.77;;;1.77;;
15486;SDS011;7845;53.698;10.078;2022-12-29T07:41:11;4.97;;;2.00;;
15486;SDS011;7845;53.698;10.078;2022-12-29T07:43:36;3.30;;;1.50;;
15486;SDS011;7845;53.698;10.078;2022-12-29T07:46:02;3.57;;;1.90;;
15486;SDS011;7845;53.698;10.078;2022-12-29T07:48:27;3.83;;;2.20;;
15486;SDS011;7845;53.698;10.078;2022-12-29T07:50:53;4.37;;;1.77;;
15486;SDS011;7845;53.698;10.078;2022-12-29T07:53:18;4.13;;;2.03;;
15486;SDS011;7845;53.698;10.078;2022-12-29T07:55:44;3.73;;;1.77;;
15486;SDS011;7845;53.698;10.078;2022-12-29T07:58:09;6.33;;;1.90;;
15486;SDS011;7845;53.698;10.078;2022-12-29T08:00:35;5.37;;;1.93;;
15486;SDS011;7845;53.698;10.078;2022-12-29T08:03:02;3.37;;;1.63;;
15486;SDS011;7845;53.698;10.078;2022-12-29T08:05:27;3.57;;;1.70;;
15486;SDS011;7845;53.698;10.078;2022-12-29T08:07:53;4.13;;;1.73;;
15486;SDS011;7845;53.698;10.078;2022-12-29T08:10:18;9.80;;;2.03;;
15486;SDS011;7845;53.698;10.078;2022-12-29T08:12:43;3.53;;;1.87;;
15486;SDS011;7845;53.698;10.078;2022-12-29T08:15:09;4.53;;;2.00;;
15486;SDS011;7845;53.698;10.078;2022-12-29T08:17:36;4.50;;;1.70;;
15486;SDS011;7845;53.698;10.078;2022-12-29T08:20:02;4.00;;;1.80;;
15486;SDS011;7845;53.698;10.078;2022-12-29T08:22:28;3.93;;;1.73;;
15486;SDS011;7845;53.698;10.078;2022-12-29T08:24:54;3.87;;;1.90;;
15486;SDS011;7845;53.698;10.078;2022-12-29T08:27:19;4.23;;;1.90;;
15486;SDS011;7845;53.698;10.078;2022-12-29T08:29:45;3.53;;;1.60;;
15486;SDS011;7845;53.698;10.078;2022-12-29T08:32:10;4.20;;;2.07;;
15486;SDS011;7845;53.698;10.078;2022-12-29T08:34:36;3.40;;;1.67;;
15486;SDS011;7845;53.698;10.078;2022-12-29T08:37:03;4.03;;;1.47;;
15486;SDS011;7845;53.698;10.078;2022-12-29T08:39:30;5.20;;;1.50;;
15486;SDS011;7845;53.698;10.078;2022-12-29T08:41:56;3.80;;;1.40;;
15486;SDS011;7845;53.698;10.078;2022-12-29T08:44:22;3.43;;;1.27;;
15486;SDS011;7845;53.698;10.078;2022-12-29T08:46:47;3.70;;;1.17;;
15486;SDS011;7845;53.698;10.078;2022-12-29T08:49:12;3.70;;;1.13;;
15486;SDS011;7845;53.698;10.078;2022-12-29T08:51:38;3.13;;;1.20;;
15486;SDS011;7845;53.698;10.078;2022-12-29T08:54:03;6.37;;;2.20;;
15486;SDS011;7845;53.698;10.078;2022-12-29T08:56:29;4.30;;;1.33;;
15486;SDS011;7845;53.698;10.078;2022-12-29T08:58:54;6.83;;;2.40;;
15486;SDS011;7845;53.698;10.078;2022-12-29T09:01:20;3.20;;;1.57;;
15486;SDS011;7845;53.698;10.078;2022-12-29T09:03:46;3.83;;;1.33;;
15486;SDS011;7845;53.698;10.078;2022-12-29T09:06:12;4.43;;;1.50;;
15486;SDS011;7845;53.698;10.078;2022-12-29T09:08:40;4.70;;;1.47;;
15486;SDS011;7845;53.698;10.078;2022-12-29T09:11:10;4.90;;;1.63;;
15486;SDS011;7845;53.698;10.078;2022-12-29T09:13:39;3.97;;;1.30;;
15486;SDS011;7845;53.698;10.078;2022-12-29T09:16:04;3.80;;;1.13;;
15486;SDS011;7845;53.698;10.078;2022-12-29T09:18:30;3.40;;;1.20;;
15486;SDS011;7845;53.698;10.078;2022-12-29T09:20:56;4.10;;;1.40;;
15486;SDS011;7845;53.698;10.078;2022-12-29T09:23:24;3.47;;;1.30;;
15486;SDS011;7845;53.698;10.078;2022-12-29T09:25:49;3.20;;;1.10;;
15486;SDS011;7845;53.698;10.078;2022-12-29T09:28:15;3.60;;;1.10;;
15486;SDS011;7845;53.698;10.078;2022-12-29T09:30:41;4.80;;;1.27;;
15486;SDS011;7845;53.698;10.078;2022-12-29T09:33:07;5.00;;;1.73;;
15486;SDS011;7845;53.698;10.078;2022-12-29T09:35:33;4.80;;;1.00;;
15486;SDS011;7845;53.698;10.078;2022-12-29T09:37:58;4.37;;;1.00;;
15486;SDS011;7845;53.698;10.078;2022-12-29T09:40:27;5.10;;;1.30;;
15486;SDS011;7845;53.698;10.078;2022-12-29T09:45:47;4.70;;;0.90;;
15486;SDS011;7845;53.698;10.078;2022-12-29T09:48:41;3.80;;;0.87;;
15486;SDS011;7845;53.698;10.078;2022-12-29T09:51:16;4.23;;;1.00;;
15486;SDS011;7845;53.698;10.078;2022-12-29T09:53:52;3.57;;;0.90;;
15486;SDS011;7845;53.698;10.078;2022-12-29T09:56:22;5.03;;;1.10;;
15486;SDS011;7845;53.698;10.078;2022-12-29T09:59:02;4.47;;;1.13;;
15486;SDS011;7845;53.698;10.078;2022-12-29T10:01:41;5.40;;;0.80;;
15486;SDS011;7845;53.698;10.078;2022-12-29T10:04:11;5.10;;;1.03;;
15486;SDS011;7845;53.698;10.078;2022-12-29T10:09:30;4.33;;;1.10;;
15486;SDS011;7845;53.698;10.078;2022-12-29T10:18:03;7.10;;;1.13;;
15486;SDS011;7845;53.698;10.078;2022-12-29T10:23:33;4.17;;;1.10;;
15486;SDS011;7845;53.698;10.078;2022-12-29T10:26:04;5.40;;;1.03;;
15486;SDS011;7845;53.698;10.078;2022-12-29T10:28:38;7.80;;;1.90;;
15486;SDS011;7845;53.698;10.078;2022-12-29T10:31:13;5.03;;;1.23;;
15486;SDS011;7845;53.698;10.078;2022-12-29T10:33:44;7.00;;;1.40;;
15486;SDS011;7845;53.698;10.078;2022-12-29T10:36:16;8.03;;;1.40;;
15486;SDS011;7845;53.698;10.078;2022-12-29T10:38:51;3.80;;;0.83;;
15486;SDS011;7845;53.698;10.078;2022-12-29T10:41:26;5.43;;;1.20;;
15486;SDS011;7845;53.698;10.078;2022-12-29T10:43:59;5.60;;;0.90;;
15486;SDS011;7845;53.698;10.078;2022-12-29T10:46:27;3.37;;;0.90;;
15486;SDS011;7845;53.698;10.078;2022-12-29T10:48:55;6.00;;;1.13;;
15486;SDS011;7845;53.698;10.078;2022-12-29T10:54:13;4.17;;;1.20;;
15486;SDS011;7845;53.698;10.078;2022-12-29T10:56:43;4.50;;;1.00;;
15486;SDS011;7845;53.698;10.078;2022-12-29T10:59:32;5.30;;;1.80;;
15486;SDS011;7845;53.698;10.078;2022-12-29T11:02:06;4.73;;;1.20;;
15486;SDS011;7845;53.698;10.078;2022-12-29T11:07:42;8.30;;;1.23;;
15486;SDS011;7845;53.698;10.078;2022-12-29T11:10:18;10.30;;;2.13;;
15486;SDS011;7845;53.698;10.078;2022-12-29T11:12:58;7.40;;;1.23;;
15486;SDS011;7845;53.698;10.078;2022-12-29T11:15:35;5.13;;;1.17;;
15486;SDS011;7845;53.698;10.078;2022-12-29T11:18:04;7.43;;;1.60;;
15486;SDS011;7845;53.698;10.078;2022-12-29T11:20:36;6.77;;;1.43;;
15486;SDS011;7845;53.698;10.078;2022-12-29T11:23:19;4.60;;;1.10;;
15486;SDS011;7845;53.698;10.078;2022-12-29T11:28:35;6.10;;;1.60;;
15486;SDS011;7845;53.698;10.078;2022-12-29T11:31:02;6.63;;;1.10;;
15486;SDS011;7845;53.698;10.078;2022-12-29T11:33:30;6.87;;;1.40;;
15486;SDS011;7845;53.698;10.078;2022-12-29T11:36:21;6.00;;;1.17;;
15486;SDS011;7845;53.698;10.078;2022-12-29T11:38:50;4.63;;;0.60;;
15486;SDS011;7845;53.698;10.078;2022-12-29T11:41:39;5.40;;;1.33;;
15486;SDS011;7845;53.698;10.078;2022-12-29T11:44:04;5.87;;;1.13;;
15486;SDS011;7845;53.698;10.078;2022-12-29T11:46:34;4.17;;;0.80;;
15486;SDS011;7845;53.698;10.078;2022-12-29T11:49:04;4.80;;;0.73;;
15486;SDS011;7845;53.698;10.078;2022-12-29T11:51:39;6.97;;;1.43;;
15486;SDS011;7845;53.698;10.078;2022-12-29T11:54:12;6.13;;;1.13;;
15486;SDS011;7845;53.698;10.078;2022-12-29T11:56:55;5.23;;;0.73;;
15486;SDS011;7845;53.698;10.078;2022-12-29T12:02:00;6.13;;;0.90;;
15486;SDS011;7845;53.698;10.078;2022-12-29T12:04:37;5.83;;;0.97;;
15486;SDS011;7845;53.698;10.078;2022-12-29T12:07:14;5.03;;;0.87;;
15486;SDS011;7845;53.698;10.078;2022-12-29T12:15:13;6.50;;;1.03;;
15486;SDS011;7845;53.698;10.078;2022-12-29T12:17:55;5.57;;;1.50;;
15486;SDS011;7845;53.698;10.078;2022-12-29T12:20:35;4.13;;;0.90;;
15486;SDS011;7845;53.698;10.078;2022-12-29T12:23:12;5.23;;;0.70;;
15486;SDS011;7845;53.698;10.078;2022-12-29T12:31:18;4.13;;;0.90;;
15486;SDS011;7845;53.698;10.078;2022-12-29T12:33:57;3.50;;;0.80;;
15486;SDS011;7845;53.698;10.078;2022-12-29T12:36:47;4.63;;;0.90;;
15486;SDS011;7845;53.698;10.078;2022-12-29T12:39:45;5.33;;;1.13;;
15486;SDS011;7845;53.698;10.078;2022-12-29T12:42:38;4.37;;;0.90;;
15486;SDS011;7845;53.698;10.078;2022-12-29T12:45:26;6.67;;;1.77;;
15486;SDS011;7845;53.698;10.078;2022-12-29T12:51:00;4.93;;;1.40;;
15486;SDS011;7845;53.698;10.078;2022-12-29T12:53:39;7.00;;;1.50;;
15486;SDS011;7845;53.698;10.078;2022-12-29T12:56:36;5.80;;;1.10;;
15486;SDS011;7845;53.698;10.078;2022-12-29T13:09:53;5.00;;;1.20;;
15486;SDS011;7845;53.698;10.078;2022-12-29T13:12:42;5.30;;;0.97;;
15486;SDS011;7845;53.698;10.078;2022-12-29T13:21:07;4.60;;;1.30;;
15486;SDS011;7845;53.698;10.078;2022-12-29T13:23:46;6.50;;;1.53;;
15486;SDS011;7845;53.698;10.078;2022-12-29T13:26:22;7.07;;;1.10;;
15486;SDS011;7845;53.698;10.078;2022-12-29T13:29:18;4.80;;;1.07;;
15486;SDS011;7845;53.698;10.078;2022-12-29T13:32:15;4.53;;;1.10;;
15486;SDS011;7845;53.698;10.078;2022-12-29T13:37:56;4.37;;;1.00;;
15486;SDS011;7845;53.698;10.078;2022-12-29T13:40:28;5.27;;;1.00;;
15486;SDS011;7845;53.698;10.078;2022-12-29T13:42:59;7.03;;;1.40;;
15486;SDS011;7845;53.698;10.078;2022-12-29T13:45:27;4.83;;;1.20;;
15486;SDS011;7845;53.698;10.078;2022-12-29T13:50:57;7.70;;;1.10;;
15486;SDS011;7845;53.698;10.078;2022-12-29T13:53:30;5.00;;;1.17;;
15486;SDS011;7845;53.698;10.078;2022-12-29T13:56:25;7.33;;;1.43;;
15486;SDS011;7845;53.698;10.078;2022-12-29T13:59:19;5.77;;;1.27;;
15486;SDS011;7845;53.698;10.078;2022-12-29T14:02:09;5.30;;;1.50;;
15486;SDS011;7845;53.698;10.078;2022-12-29T14:05:02;6.33;;;1.33;;
15486;SDS011;7845;53.698;10.078;2022-12-29T14:07:58;4.53;;;1.27;;
15486;SDS011;7845;53.698;10.078;2022-12-29T14:10:35;6.13;;;1.50;;
15486;SDS011;7845;53.698;10.078;2022-12-29T14:13:11;6.20;;;1.80;;
15486;SDS011;7845;53.698;10.078;2022-12-29T14:15:42;7.83;;;1.63;;
15486;SDS011;7845;53.698;10.078;2022-12-29T14:18:16;4.50;;;1.10;;
15486;SDS011;7845;53.698;10.078;2022-12-29T14:20:55;7.60;;;1.93;;
15486;SDS011;7845;53.698;10.078;2022-12-29T14:23:39;5.90;;;0.90;;
15486;SDS011;7845;53.698;10.078;2022-12-29T14:28:54;4.03;;;1.13;;
15486;SDS011;7845;53.698;10.078;2022-12-29T14:36:35;5.43;;;1.23;;
15486;SDS011;7845;53.698;10.078;2022-12-29T14:39:40;4.60;;;1.00;;
15486;SDS011;7845;53.698;10.078;2022-12-29T14:47:53;4.00;;;0.87;;
15486;SDS011;7845;53.698;10.078;2022-12-29T14:50:23;9.03;;;0.87;;
15486;SDS011;7845;53.698;10.078;2022-12-29T14:58:16;4.80;;;1.10;;
15486;SDS011;7845;53.698;10.078;2022-12-29T15:00:46;4.00;;;0.80;;
15486;SDS011;7845;53.698;10.078;2022-12-29T15:06:09;5.10;;;0.90;;
15486;SDS011;7845;53.698;10.078;2022-12-29T15:08:38;6.33;;;1.70;;
15486;SDS011;7845;53.698;10.078;2022-12-29T15:11:20;5.20;;;1.10;;
15486;SDS011;7845;53.698;10.078;2022-12-29T15:13:56;7.50;;;1.33;;
15486;SDS011;7845;53.698;10.078;2022-12-29T15:18:48;9.03;;;1.90;;
15486;SDS011;7845;53.698;10.078;2022-12-29T15:21:15;3.43;;;0.83;;
15486;SDS011;7845;53.698;10.078;2022-12-29T15:23:42;4.73;;;0.90;;
15486;SDS011;7845;53.698;10.078;2022-12-29T15:26:10;6.95;;;1.50;;
15486;SDS011;7845;53.698;10.078;2022-12-29T15:28:46;6.60;;;1.03;;
15486;SDS011;7845;53.698;10.078;2022-12-29T15:31:21;4.40;;;0.97;;
15486;SDS011;7845;53.698;10.078;2022-12-29T15:33:51;6.30;;;1.40;;
15486;SDS011;7845;53.698;10.078;2022-12-29T15:36:19;5.60;;;1.30;;
15486;SDS011;7845;53.698;10.078;2022-12-29T15:38:46;6.27;;;2.03;;
15486;SDS011;7845;53.698;10.078;2022-12-29T15:46:23;4.73;;;1.50;;
15486;SDS011;7845;53.698;10.078;2022-12-29T15:48:50;4.90;;;1.17;;
15486;SDS011;7845;53.698;10.078;2022-12-29T15:51:30;4.70;;;1.30;;
15486;SDS011;7845;53.698;10.078;2022-12-29T15:53:59;8.57;;;1.53;;
15486;SDS011;7845;53.698;10.078;2022-12-29T15:56:28;6.67;;;1.40;;
15486;SDS011;7845;53.698;10.078;2022-12-29T15:58:55;9.03;;;1.50;;
15486;SDS011;7845;53.698;10.078;2022-12-29T16:03:54;7.40;;;1.50;;
15486;SDS011;7845;53.698;10.078;2022-12-29T16:06:27;6.50;;;1.37;;
15486;SDS011;7845;53.698;10.078;2022-12-29T16:09:02;6.03;;;1.30;;
15486;SDS011;7845;53.698;10.078;2022-12-29T16:14:18;5.37;;;1.27;;
15486;SDS011;7845;53.698;10.078;2022-12-29T16:16:47;8.27;;;1.30;;
15486;SDS011;7845;53.698;10.078;2022-12-29T16:19:32;5.67;;;1.60;;
15486;SDS011;7845;53.698;10.078;2022-12-29T16:22:00;5.10;;;1.70;;
15486;SDS011;7845;53.698;10.078;2022-12-29T16:24:31;5.40;;;1.30;;
15486;SDS011;7845;53.698;10.078;2022-12-29T16:29:30;4.23;;;1.37;;
15486;SDS011;7845;53.698;10.078;2022-12-29T16:31:58;5.83;;;1.60;;
15486;SDS011;7845;53.698;10.078;2022-12-29T16:34:29;4.60;;;1.23;;
15486;SDS011;7845;53.698;10.078;2022-12-29T16:37:03;9.77;;;1.80;;
15486;SDS011;7845;53.698;10.078;2022-12-29T16:39:49;5.50;;;1.93;;
15486;SDS011;7845;53.698;10.078;2022-12-29T16:47:45;5.70;;;1.90;;
15486;SDS011;7845;53.698;10.078;2022-12-29T16:50:17;3.70;;;1.50;;
15486;SDS011;7845;53.698;10.078;2022-12-29T16:52:50;6.57;;;2.20;;
15486;SDS011;7845;53.698;10.078;2022-12-29T16:55:16;6.27;;;1.77;;
15486;SDS011;7845;53.698;10.078;2022-12-29T16:57:44;6.30;;;2.43;;
15486;SDS011;7845;53.698;10.078;2022-12-29T17:00:20;5.33;;;2.30;;
15486;SDS011;7845;53.698;10.078;2022-12-29T17:02:48;6.27;;;2.17;;
15486;SDS011;7845;53.698;10.078;2022-12-29T17:05:16;5.40;;;1.90;;
15486;SDS011;7845;53.698;10.078;2022-12-29T17:07:44;8.90;;;3.40;;
15486;SDS011;7845;53.698;10.078;2022-12-29T17:10:10;9.97;;;1.80;;
15486;SDS011;7845;53.698;10.078;2022-12-29T17:12:37;3.63;;;1.47;;
15486;SDS011;7845;53.698;10.078;2022-12-29T17:15:04;6.17;;;2.03;;
15486;SDS011;7845;53.698;10.078;2022-12-29T17:17:36;4.73;;;1.70;;
15486;SDS011;7845;53.698;10.078;2022-12-29T17:20:21;4.07;;;1.43;;
15486;SDS011;7845;53.698;10.078;2022-12-29T17:22:48;6.70;;;1.73;;